sensor_id;sensor_type;location;lat;lon;timestamp;P1;durP1;ratioP1;P2;durP2;ratioP2
55003;SDS011;40900;52.710;6.438;2023-06-04T00:00:46;3.72;;;2.28;;
55003;SDS011;40900;52.710;6.438;2023-06-04T00:03:12;4.82;;;2.55;;
55003;SDS011;40900;52.710;6.438;2023-06-04T00:05:37;6.15;;;2.30;;
55003;SDS011;40900;52.710;6.438;2023-06-04T00:08:03;4.43;;;2.40;;
55003;SDS011;40900;52.710;6.438;2023-06-04T00:10:29;3.47;;;2.40;;
55003;SDS011;40900;52.710;6.438;2023-06-04T00:12:56;9.25;;;2.70;;
55003;SDS011;40900;52.710;6.438;2023-06-04T00:15:22;6.43;;;2.50;;
55003;SDS011;40900;52.710;6.438;2023-06-04T00:17:48;7.70;;;2.40;;
55003;SDS011;40900;52.710;6.438;2023-06-04T00:20:13;6.75;;;2.70;;
55003;SDS011;40900;52.710;6.438;2023-06-04T00:22:39;8.90;;;2.55;;
55003;SDS011;40900;52.710;6.438;2023-06-04T00:25:07;9.52;;;3.53;;
55003;SDS011;40900;52.710;6.438;2023-06-04T00:27:36;5.85;;;2.40;;
55003;SDS011;40900;52.710;6.438;2023-06-04T00:30:03;4.50;;;2.40;;
55003;SDS011;40900;52.710;6.438;2023-06-04T00:32:29;6.72;;;2.60;;
55003;SDS011;40900;52.710;6.438;2023-06-04T00:34:55;5.07;;;2.35;;
55003;SDS011;40900;52.710;6.438;2023-06-04T00:37:23;7.47;;;2.95;;
55003;SDS011;40900;52.710;6.438;2023-06-04T00:39:49;8.82;;;2.88;;
55003;SDS011;40900;52.710;6.438;2023-06-04T00:42:15;9.82;;;2.95;;
55003;SDS011;40900;52.710;6.438;2023-06-04T00:44:41;5.28;;;2.90;;
55003;SDS011;40900;52.710;6.438;2023-06-04T00:47:15;8.05;;;3.17;;
55003;SDS011;40900;52.710;6.438;2023-06-04T00:49:42;6.93;;;3.00;;
55003;SDS011;40900;52.710;6.438;2023-06-04T00:52:08;6.72;;;2.97;;
55003;SDS011;40900;52.710;6.438;2023-06-04T00:54:34;6.57;;;3.00;;
55003;SDS011;40900;52.710;6.438;2023-06-04T00:57:01;9.00;;;3.05;;
55003;SDS011;40900;52.710;6.438;2023-06-04T00:59:28;8.05;;;3.53;;
55003;SDS011;40900;52.710;6.438;2023-06-04T01:02:01;7.22;;;3.03;;
55003;SDS011;40900;52.710;6.438;2023-06-04T01:04:37;9.18;;;3.35;;
55003;SDS011;40900;52.710;6.438;2023-06-04T01:07:16;5.13;;;3.05;;
55003;SDS011;40900;52.710;6.438;2023-06-04T01:09:44;6.50;;;3.03;;
55003;SDS011;40900;52.710;6.438;2023-06-04T01:12:10;5.75;;;3.17;;
55003;SDS011;40900;52.710;6.438;2023-06-04T01:14:36;6.55;;;3.90;;
55003;SDS011;40900;52.710;6.438;2023-06-04T01:17:46;6.95;;;3.70;;
55003;SDS011;40900;52.710;6.438;2023-06-04T01:20:13;5.45;;;3.10;;
55003;SDS011;40900;52.710;6.438;2023-06-04T01:25:35;5.55;;;3.55;;
55003;SDS011;40900;52.710;6.438;2023-06-04T01:28:14;10.50;;;3.78;;
55003;SDS011;40900;52.710;6.438;2023-06-04T01:30:44;10.68;;;3.85;;
55003;SDS011;40900;52.710;6.438;2023-06-04T01:33:18;6.35;;;4.20;;
55003;SDS011;40900;52.710;6.438;2023-06-04T01:35:45;10.13;;;3.60;;
55003;SDS011;40900;52.710;6.438;2023-06-04T01:38:11;12.02;;;3.83;;
55003;SDS011;40900;52.710;6.438;2023-06-04T01:40:37;7.53;;;3.60;;
55003;SDS011;40900;52.710;6.438;2023-06-04T01:43:03;10.82;;;4.10;;
55003;SDS011;40900;52.710;6.438;2023-06-04T01:45:29;12.77;;;3.85;;
55003;SDS011;40900;52.710;6.438;2023-06-04T01:47:55;8.40;;;3.35;;
55003;SDS011;40900;52.710;6.438;2023-06-04T01:50:21;12.02;;;3.92;;
55003;SDS011;40900;52.710;6.438;2023-06-04T01:52:48;10.70;;;3.72;;
55003;SDS011;40900;52.710;6.438;2023-06-04T01:55:14;9.02;;;3.95;;
55003;SDS011;40900;52.710;6.438;2023-06-04T01:57:42;12.15;;;4.13;;
55003;SDS011;40900;52.710;6.438;2023-06-04T02:00:09;10.23;;;4.00;;
55003;SDS011;40900;52.710;6.438;2023-06-04T02:02:37;10.55;;;3.95;;
55003;SDS011;40900;52.710;6.438;2023-06-04T02:05:03;9.95;;;3.67;;
55003;SDS011;40900;52.710;6.438;2023-06-04T02:07:40;8.73;;;4.03;;
55003;SDS011;40900;52.710;6.438;2023-06-04T02:10:13;8.73;;;3.67;;
55003;SDS011;40900;52.710;6.438;2023-06-04T02:12:52;5.83;;;3.07;;
55003;SDS011;40900;52.710;6.438;2023-06-04T02:15:22;9.38;;;3.70;;
55003;SDS011;40900;52.710;6.438;2023-06-04T02:17:49;8.73;;;4.28;;
55003;SDS011;40900;52.710;6.438;2023-06-04T02:20:16;11.15;;;3.80;;
55003;SDS011;40900;52.710;6.438;2023-06-04T02:22:42;8.20;;;3.70;;
55003;SDS011;40900;52.710;6.438;2023-06-04T02:25:08;9.73;;;4.50;;
55003;SDS011;40900;52.710;6.438;2023-06-04T02:27:34;8.57;;;4.60;;
55003;SDS011;40900;52.710;6.438;2023-06-04T02:30:01;12.20;;;4.78;;
55003;SDS011;40900;52.710;6.438;2023-06-04T02:32:27;8.10;;;3.67;;
55003;SDS011;40900;52.710;6.438;2023-06-04T02:34:54;13.98;;;4.25;;
55003;SDS011;40900;52.710;6.438;2023-06-04T02:37:20;7.88;;;3.92;;
55003;SDS011;40900;52.710;6.438;2023-06-04T02:39:47;9.73;;;4.18;;
55003;SDS011;40900;52.710;6.438;2023-06-04T02:42:13;12.27;;;4.63;;
55003;SDS011;40900;52.710;6.438;2023-06-04T02:44:38;12.50;;;4.28;;
55003;SDS011;40900;52.710;6.438;2023-06-04T02:47:04;13.75;;;5.22;;
55003;SDS011;40900;52.710;6.438;2023-06-04T02:49:30;10.63;;;4.18;;
55003;SDS011;40900;52.710;6.438;2023-06-04T02:51:56;12.48;;;4.88;;
55003;SDS011;40900;52.710;6.438;2023-06-04T02:54:22;12.18;;;4.75;;
55003;SDS011;40900;52.710;6.438;2023-06-04T02:56:47;10.70;;;4.10;;
55003;SDS011;40900;52.710;6.438;2023-06-04T02:59:14;8.63;;;4.18;;
55003;SDS011;40900;52.710;6.438;2023-06-04T03:01:40;12.63;;;5.07;;
55003;SDS011;40900;52.710;6.438;2023-06-04T03:04:06;11.02;;;4.80;;
55003;SDS011;40900;52.710;6.438;2023-06-04T03:06:35;10.30;;;4.43;;
55003;SDS011;40900;52.710;6.438;2023-06-04T03:09:04;11.18;;;5.07;;
55003;SDS011;40900;52.710;6.438;2023-06-04T03:11:30;11.18;;;4.78;;
55003;SDS011;40900;52.710;6.438;2023-06-04T03:13:56;16.23;;;5.00;;
55003;SDS011;40900;52.710;6.438;2023-06-04T03:16:22;9.57;;;5.18;;
55003;SDS011;40900;52.710;6.438;2023-06-04T03:18:48;12.18;;;4.95;;
55003;SDS011;40900;52.710;6.438;2023-06-04T03:21:13;11.95;;;5.57;;
55003;SDS011;40900;52.710;6.438;2023-06-04T03:23:39;12.20;;;5.25;;
55003;SDS011;40900;52.710;6.438;2023-06-04T03:26:05;11.80;;;5.60;;
55003;SDS011;40900;52.710;6.438;2023-06-04T03:28:32;13.75;;;4.93;;
55003;SDS011;40900;52.710;6.438;2023-06-04T03:30:59;14.02;;;5.05;;
55003;SDS011;40900;52.710;6.438;2023-06-04T03:33:25;10.73;;;5.15;;
55003;SDS011;40900;52.710;6.438;2023-06-04T03:35:51;13.45;;;5.03;;
55003;SDS011;40900;52.710;6.438;2023-06-04T03:38:17;12.18;;;6.00;;
55003;SDS011;40900;52.710;6.438;2023-06-04T03:40:44;14.18;;;5.65;;
55003;SDS011;40900;52.710;6.438;2023-06-04T03:43:11;11.02;;;5.38;;
55003;SDS011;40900;52.710;6.438;2023-06-04T03:45:36;14.55;;;6.03;;
55003;SDS011;40900;52.710;6.438;2023-06-04T03:48:02;15.35;;;5.70;;
55003;SDS011;40900;52.710;6.438;2023-06-04T03:50:28;15.82;;;6.15;;
55003;SDS011;40900;52.710;6.438;2023-06-04T03:52:55;14.52;;;6.07;;
55003;SDS011;40900;52.710;6.438;2023-06-04T03:55:21;16.27;;;5.57;;
55003;SDS011;40900;52.710;6.438;2023-06-04T03:57:46;15.68;;;5.50;;
55003;SDS011;40900;52.710;6.438;2023-06-04T04:00:13;13.20;;;5.50;;
55003;SDS011;40900;52.710;6.438;2023-06-04T04:02:40;16.15;;;6.15;;
55003;SDS011;40900;52.710;6.438;2023-06-04T04:05:07;12.52;;;5.53;;
55003;SDS011;40900;52.710;6.438;2023-06-04T04:07:33;14.77;;;6.45;;
55003;SDS011;40900;52.710;6.438;2023-06-04T04:09:58;15.75;;;6.10;;
55003;SDS011;40900;52.710;6.438;2023-06-04T04:12:24;13.93;;;5.88;;
55003;SDS011;40900;52.710;6.438;2023-06-04T04:14:50;13.45;;;5.43;;
55003;SDS011;40900;52.710;6.438;2023-06-04T04:17:16;15.93;;;5.85;;
55003;SDS011;40900;52.710;6.438;2023-06-04T04:19:41;17.42;;;6.10;;
55003;SDS011;40900;52.710;6.438;2023-06-04T04:22:07;15.02;;;5.22;;
55003;SDS011;40900;52.710;6.438;2023-06-04T04:24:35;16.67;;;5.97;;
55003;SDS011;40900;52.710;6.438;2023-06-04T04:27:02;12.27;;;5.43;;
55003;SDS011;40900;52.710;6.438;2023-06-04T04:29:28;14.43;;;5.43;;
55003;SDS011;40900;52.710;6.438;2023-06-04T04:31:57;13.82;;;5.93;;
55003;SDS011;40900;52.710;6.438;2023-06-04T04:34:25;18.83;;;5.88;;
55003;SDS011;40900;52.710;6.438;2023-06-04T04:36:52;16.55;;;5.95;;
55003;SDS011;40900;52.710;6.438;2023-06-04T04:39:24;13.25;;;5.63;;
55003;SDS011;40900;52.710;6.438;2023-06-04T04:41:51;13.52;;;6.03;;
55003;SDS011;40900;52.710;6.438;2023-06-04T04:44:17;12.55;;;5.78;;
55003;SDS011;40900;52.710;6.438;2023-06-04T04:46:43;15.68;;;5.93;;
55003;SDS011;40900;52.710;6.438;2023-06-04T04:49:08;15.88;;;6.32;;
55003;SDS011;40900;52.710;6.438;2023-06-04T04:51:34;11.13;;;5.85;;
55003;SDS011;40900;52.710;6.438;2023-06-04T04:54:00;19.40;;;6.85;;
55003;SDS011;40900;52.710;6.438;2023-06-04T04:56:26;12.15;;;6.13;;
55003;SDS011;40900;52.710;6.438;2023-06-04T04:58:53;15.43;;;5.35;;
55003;SDS011;40900;52.710;6.438;2023-06-04T05:01:19;14.27;;;6.35;;
55003;SDS011;40900;52.710;6.438;2023-06-04T05:03:45;12.35;;;6.05;;
55003;SDS011;40900;52.710;6.438;2023-06-04T05:06:10;13.02;;;6.03;;
55003;SDS011;40900;52.710;6.438;2023-06-04T05:08:36;13.60;;;5.70;;
55003;SDS011;40900;52.710;6.438;2023-06-04T05:11:02;18.40;;;7.47;;
55003;SDS011;40900;52.710;6.438;2023-06-04T05:13:28;16.30;;;5.90;;
55003;SDS011;40900;52.710;6.438;2023-06-04T05:15:53;17.15;;;6.30;;
55003;SDS011;40900;52.710;6.438;2023-06-04T05:18:19;16.23;;;5.75;;
55003;SDS011;40900;52.710;6.438;2023-06-04T05:20:46;11.38;;;5.53;;
55003;SDS011;40900;52.710;6.438;2023-06-04T05:23:12;12.90;;;5.80;;
55003;SDS011;40900;52.710;6.438;2023-06-04T05:25:38;9.90;;;5.45;;
55003;SDS011;40900;52.710;6.438;2023-06-04T05:28:03;12.27;;;5.47;;
55003;SDS011;40900;52.710;6.438;2023-06-04T05:30:31;19.13;;;5.82;;
55003;SDS011;40900;52.710;6.438;2023-06-04T05:32:58;14.32;;;6.30;;
55003;SDS011;40900;52.710;6.438;2023-06-04T05:35:24;11.95;;;5.45;;
55003;SDS011;40900;52.710;6.438;2023-06-04T05:37:50;13.40;;;5.95;;
55003;SDS011;40900;52.710;6.438;2023-06-04T05:40:20;11.57;;;5.65;;
55003;SDS011;40900;52.710;6.438;2023-06-04T05:42:48;18.23;;;6.57;;
55003;SDS011;40900;52.710;6.438;2023-06-04T05:45:14;17.00;;;6.38;;
55003;SDS011;40900;52.710;6.438;2023-06-04T05:47:40;15.63;;;6.75;;
55003;SDS011;40900;52.710;6.438;2023-06-04T05:50:06;16.63;;;6.40;;
55003;SDS011;40900;52.710;6.438;2023-06-04T05:52:32;15.18;;;6.80;;
55003;SDS011;40900;52.710;6.438;2023-06-04T05:55:02;12.55;;;5.82;;
55003;SDS011;40900;52.710;6.438;2023-06-04T05:57:27;17.05;;;6.90;;
55003;SDS011;40900;52.710;6.438;2023-06-04T05:59:53;13.20;;;5.95;;
55003;SDS011;40900;52.710;6.438;2023-06-04T06:02:19;14.77;;;6.05;;
55003;SDS011;40900;52.710;6.438;2023-06-04T06:04:44;12.00;;;5.57;;
55003;SDS011;40900;52.710;6.438;2023-06-04T06:07:10;15.45;;;5.90;;
55003;SDS011;40900;52.710;6.438;2023-06-04T06:09:36;10.13;;;6.32;;
55003;SDS011;40900;52.710;6.438;2023-06-04T06:12:02;13.65;;;6.15;;
55003;SDS011;40900;52.710;6.438;2023-06-04T06:14:27;11.70;;;5.72;;
55003;SDS011;40900;52.710;6.438;2023-06-04T06:16:53;17.83;;;5.70;;
55003;SDS011;40900;52.710;6.438;2023-06-04T06:19:19;11.52;;;5.95;;
55003;SDS011;40900;52.710;6.438;2023-06-04T06:21:44;17.05;;;5.38;;
55003;SDS011;40900;52.710;6.438;2023-06-04T06:24:10;14.95;;;5.28;;
55003;SDS011;40900;52.710;6.438;2023-06-04T06:26:36;12.45;;;5.28;;
55003;SDS011;40900;52.710;6.438;2023-06-04T06:29:02;11.00;;;4.90;;
55003;SDS011;40900;52.710;6.438;2023-06-04T06:31:27;13.88;;;5.00;;
55003;SDS011;40900;52.710;6.438;2023-06-04T06:33:53;17.00;;;5.75;;
55003;SDS011;40900;52.710;6.438;2023-06-04T06:36:19;8.90;;;4.50;;
55003;SDS011;40900;52.710;6.438;2023-06-04T06:38:45;9.77;;;4.65;;
55003;SDS011;40900;52.710;6.438;2023-06-04T06:41:11;13.90;;;5.63;;
55003;SDS011;40900;52.710;6.438;2023-06-04T06:43:37;10.70;;;4.97;;
55003;SDS011;40900;52.710;6.438;2023-06-04T06:46:03;11.98;;;4.57;;
55003;SDS011;40900;52.710;6.438;2023-06-04T06:48:29;11.63;;;4.60;;
55003;SDS011;40900;52.710;6.438;2023-06-04T06:50:54;11.65;;;4.60;;
55003;SDS011;40900;52.710;6.438;2023-06-04T06:53:20;12.45;;;4.18;;
55003;SDS011;40900;52.710;6.438;2023-06-04T06:55:46;9.23;;;3.60;;
55003;SDS011;40900;52.710;6.438;2023-06-04T06:58:12;10.85;;;4.57;;
55003;SDS011;40900;52.710;6.438;2023-06-04T07:00:38;9.93;;;4.07;;
55003;SDS011;40900;52.710;6.438;2023-06-04T07:03:03;10.02;;;3.92;;
55003;SDS011;40900;52.710;6.438;2023-06-04T07:05:29;8.98;;;3.88;;
55003;SDS011;40900;52.710;6.438;2023-06-04T07:07:55;10.57;;;4.07;;
55003;SDS011;40900;52.710;6.438;2023-06-04T07:10:22;10.02;;;4.35;;
55003;SDS011;40900;52.710;6.438;2023-06-04T07:12:49;8.65;;;3.92;;
55003;SDS011;40900;52.710;6.438;2023-06-04T07:15:15;8.98;;;3.85;;
55003;SDS011;40900;52.710;6.438;2023-06-04T07:17:41;9.90;;;3.83;;
55003;SDS011;40900;52.710;6.438;2023-06-04T07:20:07;12.00;;;4.60;;
55003;SDS011;40900;52.710;6.438;2023-06-04T07:22:34;10.50;;;4.40;;
55003;SDS011;40900;52.710;6.438;2023-06-04T07:25:00;9.30;;;4.07;;
55003;SDS011;40900;52.710;6.438;2023-06-04T07:27:26;11.05;;;3.70;;
55003;SDS011;40900;52.710;6.438;2023-06-04T07:29:52;9.80;;;3.58;;
55003;SDS011;40900;52.710;6.438;2023-06-04T07:32:18;10.05;;;3.95;;
55003;SDS011;40900;52.710;6.438;2023-06-04T07:34:44;11.60;;;3.60;;
55003;SDS011;40900;52.710;6.438;2023-06-04T07:37:10;10.35;;;3.58;;
55003;SDS011;40900;52.710;6.438;2023-06-04T07:39:38;8.65;;;3.60;;
55003;SDS011;40900;52.710;6.438;2023-06-04T07:42:04;9.75;;;3.30;;
55003;SDS011;40900;52.710;6.438;2023-06-04T07:44:32;10.13;;;3.78;;
55003;SDS011;40900;52.710;6.438;2023-06-04T07:46:58;9.65;;;3.00;;
55003;SDS011;40900;52.710;6.438;2023-06-04T07:49:23;8.23;;;2.80;;
55003;SDS011;40900;52.710;6.438;2023-06-04T07:51:49;7.82;;;3.10;;
55003;SDS011;40900;52.710;6.438;2023-06-04T07:54:15;5.03;;;2.47;;
55003;SDS011;40900;52.710;6.438;2023-06-04T07:56:41;7.80;;;2.92;;
55003;SDS011;40900;52.710;6.438;2023-06-04T07:59:07;8.50;;;3.28;;
55003;SDS011;40900;52.710;6.438;2023-06-04T08:01:33;7.05;;;2.42;;
55003;SDS011;40900;52.710;6.438;2023-06-04T08:03:59;6.70;;;2.45;;
55003;SDS011;40900;52.710;6.438;2023-06-04T08:06:25;6.82;;;2.30;;
55003;SDS011;40900;52.710;6.438;2023-06-04T08:08:51;7.40;;;2.67;;
55003;SDS011;40900;52.710;6.438;2023-06-04T08:11:17;7.00;;;2.83;;
55003;SDS011;40900;52.710;6.438;2023-06-04T08:13:43;9.77;;;2.60;;
55003;SDS011;40900;52.710;6.438;2023-06-04T08:16:09;6.22;;;2.60;;
55003;SDS011;40900;52.710;6.438;2023-06-04T08:18:42;5.82;;;2.05;;
55003;SDS011;40900;52.710;6.438;2023-06-04T08:21:10;7.50;;;2.10;;
55003;SDS011;40900;52.710;6.438;2023-06-04T08:23:42;5.22;;;1.75;;
55003;SDS011;40900;52.710;6.438;2023-06-04T08:26:08;4.32;;;1.92;;
55003;SDS011;40900;52.710;6.438;2023-06-04T08:28:34;5.47;;;2.00;;
55003;SDS011;40900;52.710;6.438;2023-06-04T08:31:03;7.25;;;2.00;;
55003;SDS011;40900;52.710;6.438;2023-06-04T08:33:30;6.30;;;2.13;;
55003;SDS011;40900;52.710;6.438;2023-06-04T08:35:56;6.32;;;1.85;;
55003;SDS011;40900;52.710;6.438;2023-06-04T08:38:21;5.50;;;2.10;;
55003;SDS011;40900;52.710;6.438;2023-06-04T08:40:48;5.75;;;1.88;;
55003;SDS011;40900;52.710;6.438;2023-06-04T08:43:18;4.20;;;1.50;;
55003;SDS011;40900;52.710;6.438;2023-06-04T08:45:45;5.53;;;1.90;;
55003;SDS011;40900;52.710;6.438;2023-06-04T08:48:15;4.75;;;1.70;;
55003;SDS011;40900;52.710;6.438;2023-06-04T08:50:45;4.15;;;2.00;;
55003;SDS011;40900;52.710;6.438;2023-06-04T08:53:13;4.32;;;1.88;;
55003;SDS011;40900;52.710;6.438;2023-06-04T08:55:40;4.50;;;1.67;;
55003;SDS011;40900;52.710;6.438;2023-06-04T08:58:07;5.65;;;1.98;;
55003;SDS011;40900;52.710;6.438;2023-06-04T09:00:35;6.10;;;1.90;;
55003;SDS011;40900;52.710;6.438;2023-06-04T09:03:01;4.00;;;2.00;;
55003;SDS011;40900;52.710;6.438;2023-06-04T09:05:30;6.93;;;2.40;;
55003;SDS011;40900;52.710;6.438;2023-06-04T09:07:56;6.10;;;3.67;;
55003;SDS011;40900;52.710;6.438;2023-06-04T09:10:25;6.65;;;2.13;;
55003;SDS011;40900;52.710;6.438;2023-06-04T09:12:54;4.32;;;1.70;;
55003;SDS011;40900;52.710;6.438;2023-06-04T09:15:26;4.07;;;1.60;;
55003;SDS011;40900;52.710;6.438;2023-06-04T09:17:51;4.88;;;1.90;;
55003;SDS011;40900;52.710;6.438;2023-06-04T09:20:21;5.00;;;1.95;;
55003;SDS011;40900;52.710;6.438;2023-06-04T09:22:47;3.85;;;1.45;;
55003;SDS011;40900;52.710;6.438;2023-06-04T09:25:23;6.80;;;1.80;;
55003;SDS011;40900;52.710;6.438;2023-06-04T09:27:56;5.88;;;2.10;;
55003;SDS011;40900;52.710;6.438;2023-06-04T09:30:30;10.70;;;1.90;;
55003;SDS011;40900;52.710;6.438;2023-06-04T09:33:05;3.55;;;1.52;;
55003;SDS011;40900;52.710;6.438;2023-06-04T09:35:34;5.80;;;1.92;;
55003;SDS011;40900;52.710;6.438;2023-06-04T09:38:00;5.22;;;1.70;;
55003;SDS011;40900;52.710;6.438;2023-06-04T09:40:36;4.75;;;2.08;;
55003;SDS011;40900;52.710;6.438;2023-06-04T09:43:02;5.65;;;1.98;;
55003;SDS011;40900;52.710;6.438;2023-06-04T09:45:32;5.97;;;2.40;;
55003;SDS011;40900;52.710;6.438;2023-06-04T09:47:59;4.22;;;1.67;;
55003;SDS011;40900;52.710;6.438;2023-06-04T09:50:26;3.85;;;2.08;;
55003;SDS011;40900;52.710;6.438;2023-06-04T09:52:58;4.07;;;1.70;;
55003;SDS011;40900;52.710;6.438;2023-06-04T09:55:24;3.05;;;1.55;;
55003;SDS011;40900;52.710;6.438;2023-06-04T09:57:51;7.10;;;2.00;;
55003;SDS011;40900;52.710;6.438;2023-06-04T10:00:21;4.43;;;1.90;;
55003;SDS011;40900;52.710;6.438;2023-06-04T10:02:48;5.85;;;2.00;;
55003;SDS011;40900;52.710;6.438;2023-06-04T10:05:20;4.18;;;1.75;;
55003;SDS011;40900;52.710;6.438;2023-06-04T10:07:48;3.47;;;1.58;;
55003;SDS011;40900;52.710;6.438;2023-06-04T10:10:18;3.83;;;1.75;;
55003;SDS011;40900;52.710;6.438;2023-06-04T10:12:48;3.97;;;1.73;;
55003;SDS011;40900;52.710;6.438;2023-06-04T10:15:18;3.65;;;1.52;;
55003;SDS011;40900;52.710;6.438;2023-06-04T10:17:46;3.63;;;1.60;;
55003;SDS011;40900;52.710;6.438;2023-06-04T10:20:13;3.92;;;1.92;;
55003;SDS011;40900;52.710;6.438;2023-06-04T10:22:39;7.13;;;1.85;;
55003;SDS011;40900;52.710;6.438;2023-06-04T10:25:06;6.00;;;1.70;;
55003;SDS011;40900;52.710;6.438;2023-06-04T10:27:34;8.77;;;2.00;;
55003;SDS011;40900;52.710;6.438;2023-06-04T10:30:02;5.97;;;1.70;;
55003;SDS011;40900;52.710;6.438;2023-06-04T10:32:29;4.03;;;1.73;;
55003;SDS011;40900;52.710;6.438;2023-06-04T10:34:56;4.75;;;1.75;;
55003;SDS011;40900;52.710;6.438;2023-06-04T10:37:22;4.50;;;1.67;;
55003;SDS011;40900;52.710;6.438;2023-06-04T10:39:56;6.50;;;1.98;;
55003;SDS011;40900;52.710;6.438;2023-06-04T10:42:22;5.40;;;1.70;;
55003;SDS011;40900;52.710;6.438;2023-06-04T10:44:50;4.53;;;2.00;;
55003;SDS011;40900;52.710;6.438;2023-06-04T10:47:27;4.32;;;1.70;;
55003;SDS011;40900;52.710;6.438;2023-06-04T10:50:07;3.58;;;1.60;;
55003;SDS011;40900;52.710;6.438;2023-06-04T10:52:37;4.03;;;1.60;;
55003;SDS011;40900;52.710;6.438;2023-06-04T10:55:05;3.42;;;1.60;;
55003;SDS011;40900;52.710;6.438;2023-06-04T10:57:33;4.80;;;1.60;;
55003;SDS011;40900;52.710;6.438;2023-06-04T11:00:00;3.10;;;1.60;;
55003;SDS011;40900;52.710;6.438;2023-06-04T11:02:27;3.65;;;1.60;;
55003;SDS011;40900;52.710;6.438;2023-06-04T11:05:05;4.65;;;1.40;;
55003;SDS011;40900;52.710;6.438;2023-06-04T11:07:43;3.25;;;1.65;;
55003;SDS011;40900;52.710;6.438;2023-06-04T11:10:11;5.32;;;1.73;;
55003;SDS011;40900;52.710;6.438;2023-06-04T11:12:41;6.68;;;1.70;;
55003;SDS011;40900;52.710;6.438;2023-06-04T11:15:18;3.30;;;1.60;;
55003;SDS011;40900;52.710;6.438;2023-06-04T11:20:17;4.13;;;1.55;;
55003;SDS011;40900;52.710;6.438;2023-06-04T11:22:57;4.40;;;1.70;;
55003;SDS011;40900;52.710;6.438;2023-06-04T11:27:56;3.42;;;1.50;;
55003;SDS011;40900;52.710;6.438;2023-06-04T11:30:23;5.57;;;1.70;;
55003;SDS011;40900;52.710;6.438;2023-06-04T11:32:50;5.10;;;1.77;;
55003;SDS011;40900;52.710;6.438;2023-06-04T11:35:24;4.57;;;1.80;;
55003;SDS011;40900;52.710;6.438;2023-06-04T11:37:53;6.60;;;2.00;;
55003;SDS011;40900;52.710;6.438;2023-06-04T11:40:20;5.00;;;1.58;;
55003;SDS011;40900;52.710;6.438;2023-06-04T11:42:47;4.57;;;1.60;;
55003;SDS011;40900;52.710;6.438;2023-06-04T11:45:13;6.60;;;1.83;;
55003;SDS011;40900;52.710;6.438;2023-06-04T11:47:47;4.55;;;2.20;;
55003;SDS011;40900;52.710;6.438;2023-06-04T11:50:13;4.25;;;1.85;;
55003;SDS011;40900;52.710;6.438;2023-06-04T11:52:40;5.65;;;2.08;;
55003;SDS011;40900;52.710;6.438;2023-06-04T11:55:10;5.88;;;1.75;;
55003;SDS011;40900;52.710;6.438;2023-06-04T11:57:37;4.28;;;1.80;;
55003;SDS011;40900;52.710;6.438;2023-06-04T12:00:04;4.38;;;1.83;;
55003;SDS011;40900;52.710;6.438;2023-06-04T12:02:36;4.95;;;2.15;;
55003;SDS011;40900;52.710;6.438;2023-06-04T12:05:15;6.47;;;2.00;;
55003;SDS011;40900;52.710;6.438;2023-06-04T12:07:46;5.20;;;1.88;;
55003;SDS011;40900;52.710;6.438;2023-06-04T12:10:15;4.60;;;2.03;;
55003;SDS011;40900;52.710;6.438;2023-06-04T12:12:42;5.65;;;1.40;;
55003;SDS011;40900;52.710;6.438;2023-06-04T12:15:08;6.90;;;1.80;;
55003;SDS011;40900;52.710;6.438;2023-06-04T12:17:35;3.53;;;1.85;;
55003;SDS011;40900;52.710;6.438;2023-06-04T12:20:02;8.35;;;2.45;;
55003;SDS011;40900;52.710;6.438;2023-06-04T12:22:30;3.25;;;1.60;;
55003;SDS011;40900;52.710;6.438;2023-06-04T12:24:56;3.28;;;1.55;;
55003;SDS011;40900;52.710;6.438;2023-06-04T12:27:25;4.53;;;1.83;;
55003;SDS011;40900;52.710;6.438;2023-06-04T12:32:22;5.53;;;1.83;;
55003;SDS011;40900;52.710;6.438;2023-06-04T12:34:47;4.65;;;1.90;;
55003;SDS011;40900;52.710;6.438;2023-06-04T12:37:13;5.50;;;1.70;;
55003;SDS011;40900;52.710;6.438;2023-06-04T12:39:39;3.72;;;1.65;;
55003;SDS011;40900;52.710;6.438;2023-06-04T12:42:05;6.45;;;1.80;;
55003;SDS011;40900;52.710;6.438;2023-06-04T12:44:35;4.93;;;1.80;;
55003;SDS011;40900;52.710;6.438;2023-06-04T12:47:01;5.75;;;1.95;;
55003;SDS011;40900;52.710;6.438;2023-06-04T12:49:27;3.30;;;1.70;;
55003;SDS011;40900;52.710;6.438;2023-06-04T12:51:53;4.45;;;1.73;;
55003;SDS011;40900;52.710;6.438;2023-06-04T12:54:19;4.05;;;1.65;;
55003;SDS011;40900;52.710;6.438;2023-06-04T12:56:45;5.88;;;1.70;;
55003;SDS011;40900;52.710;6.438;2023-06-04T12:59:10;5.80;;;1.85;;
55003;SDS011;40900;52.710;6.438;2023-06-04T13:01:36;4.95;;;1.85;;
55003;SDS011;40900;52.710;6.438;2023-06-04T13:04:03;4.15;;;1.60;;
55003;SDS011;40900;52.710;6.438;2023-06-04T13:06:29;3.67;;;1.60;;
55003;SDS011;40900;52.710;6.438;2023-06-04T13:08:55;4.43;;;1.50;;
55003;SDS011;40900;52.710;6.438;2023-06-04T13:11:21;2.90;;;1.85;;
55003;SDS011;40900;52.710;6.438;2023-06-04T13:13:47;3.97;;;1.60;;
55003;SDS011;40900;52.710;6.438;2023-06-04T13:16:13;5.00;;;1.50;;
55003;SDS011;40900;52.710;6.438;2023-06-04T13:18:39;3.63;;;1.70;;
55003;SDS011;40900;52.710;6.438;2023-06-04T13:21:05;6.30;;;1.75;;
55003;SDS011;40900;52.710;6.438;2023-06-04T13:23:31;5.85;;;1.80;;
55003;SDS011;40900;52.710;6.438;2023-06-04T13:25:57;3.35;;;1.75;;
55003;SDS011;40900;52.710;6.438;2023-06-04T13:28:23;5.18;;;1.85;;
55003;SDS011;40900;52.710;6.438;2023-06-04T13:30:48;3.50;;;1.83;;
55003;SDS011;40900;52.710;6.438;2023-06-04T13:33:14;4.35;;;1.80;;
55003;SDS011;40900;52.710;6.438;2023-06-04T13:35:41;6.00;;;1.70;;
55003;SDS011;40900;52.710;6.438;2023-06-04T13:38:07;3.30;;;1.60;;
55003;SDS011;40900;52.710;6.438;2023-06-04T13:40:36;5.00;;;1.80;;
55003;SDS011;40900;52.710;6.438;2023-06-04T13:43:02;3.13;;;1.80;;
55003;SDS011;40900;52.710;6.438;2023-06-04T13:45:28;3.75;;;1.58;;
55003;SDS011;40900;52.710;6.438;2023-06-04T13:47:54;3.80;;;2.05;;
55003;SDS011;40900;52.710;6.438;2023-06-04T13:50:20;3.65;;;1.90;;
55003;SDS011;40900;52.710;6.438;2023-06-04T13:52:46;4.20;;;1.80;;
55003;SDS011;40900;52.710;6.438;2023-06-04T13:55:12;5.25;;;1.70;;
55003;SDS011;40900;52.710;6.438;2023-06-04T13:57:38;6.13;;;1.92;;
55003;SDS011;40900;52.710;6.438;2023-06-04T14:00:04;5.25;;;2.13;;
55003;SDS011;40900;52.710;6.438;2023-06-04T14:02:32;5.22;;;1.77;;
55003;SDS011;40900;52.710;6.438;2023-06-04T14:04:57;5.05;;;1.98;;
55003;SDS011;40900;52.710;6.438;2023-06-04T14:07:23;5.82;;;2.20;;
55003;SDS011;40900;52.710;6.438;2023-06-04T14:09:49;5.50;;;2.30;;
55003;SDS011;40900;52.710;6.438;2023-06-04T14:12:19;7.38;;;2.00;;
55003;SDS011;40900;52.710;6.438;2023-06-04T14:14:48;3.95;;;2.00;;
55003;SDS011;40900;52.710;6.438;2023-06-04T14:17:14;6.30;;;1.80;;
55003;SDS011;40900;52.710;6.438;2023-06-04T14:19:39;5.72;;;2.30;;
55003;SDS011;40900;52.710;6.438;2023-06-04T14:22:06;3.20;;;1.65;;
55003;SDS011;40900;52.710;6.438;2023-06-04T14:24:32;3.63;;;1.90;;
55003;SDS011;40900;52.710;6.438;2023-06-04T14:26:58;3.67;;;1.73;;
55003;SDS011;40900;52.710;6.438;2023-06-04T14:29:24;5.72;;;2.00;;
55003;SDS011;40900;52.710;6.438;2023-06-04T14:31:50;4.55;;;1.85;;
55003;SDS011;40900;52.710;6.438;2023-06-04T14:34:16;5.10;;;1.90;;
55003;SDS011;40900;52.710;6.438;2023-06-04T14:36:41;5.40;;;1.90;;
55003;SDS011;40900;52.710;6.438;2023-06-04T14:39:07;4.78;;;2.00;;
55003;SDS011;40900;52.710;6.438;2023-06-04T14:41:33;5.72;;;2.17;;
55003;SDS011;40900;52.710;6.438;2023-06-04T14:43:59;6.35;;;2.05;;
55003;SDS011;40900;52.710;6.438;2023-06-04T14:46:25;4.70;;;2.00;;
55003;SDS011;40900;52.710;6.438;2023-06-04T14:48:51;7.68;;;2.20;;
55003;SDS011;40900;52.710;6.438;2023-06-04T14:51:18;3.38;;;1.80;;
55003;SDS011;40900;52.710;6.438;2023-06-04T14:53:45;4.15;;;2.58;;